Time;durP1;ratioP1;P1;durP2;ratioP2;P2;SDS_P1;SDS_P2;PMS_P1;PMS_P2;Temp;Humidity;BMP_temperature;BMP_pressure;BME280_temperature;BME280_humidity;BME280_pressure;Samples;Min_cycle;Max_cycle;Signal;HPM_P1;HPM_P2
2021/06/30 00:36:57;;;;;;;16.60;14.95;;;;;;;;;;6103363;23;21265;-100
2021/06/30 00:48:03;;;;;;;18.73;15.40;;;;;;;;;;5625808;23;20468;-96
2021/06/30 02:57:24;;;;;;;18.50;15.80;;;;;;;;;;4975707;28;21071;-96
2021/06/30 03:20:23;;;;;;;19.90;16.20;;;;;;;;;;5786096;23;20478;-96
2021/06/30 03:22:49;;;;;;;20.97;17.80;;;;;;;;;;4980234;28;20458;-95
2021/06/30 04:45:21;;;;;;;24.87;20.33;;;;;;;;;;5037695;28;20543;-95
2021/06/30 04:47:47;;;;;;;24.93;21.70;;;;;;;;;;5041219;28;20466;-93
2021/06/30 04:50:14;;;;;;;24.17;21.13;;;;;;;;;;5036402;28;20439;-96
2021/06/30 04:52:41;;;;;;;24.07;21.67;;;;;;;;;;5028878;28;20443;-94
2021/06/30 04:55:08;;;;;;;23.10;20.67;;;;;;;;;;5040069;28;20489;-93
2021/06/30 05:35:17;;;;;;;26.43;20.77;;;;;;;;;;5785963;22;20494;-93
2021/06/30 05:37:44;;;;;;;22.93;20.17;;;;;;;;;;5096406;22;20475;-96
2021/06/30 05:58:33;;;;;;;22.93;20.50;;;;;;;;;;5036030;23;20530;-96
2021/06/30 06:01:00;;;;;;;23.40;21.03;;;;;;;;;;5042585;28;20447;-96
2021/06/30 06:03:27;;;;;;;22.03;19.73;;;;;;;;;;5050857;28;20984;-96
2021/06/30 06:05:54;;;;;;;22.00;19.70;;;;;;;;;;5040334;28;20482;-96
2021/06/30 06:08:20;;;;;;;22.33;20.23;;;;;;;;;;5045089;28;20458;-96
2021/06/30 06:10:51;;;;;;;26.07;20.57;;;;;;;;;;5040010;28;20447;-96
2021/06/30 06:18:24;;;;;;;24.77;20.77;;;;;;;;;;5813240;22;20479;-96
2021/06/30 06:20:51;;;;;;;23.60;21.07;;;;;;;;;;5015747;28;20475;-95
2021/06/30 06:23:17;;;;;;;22.53;20.30;;;;;;;;;;5027239;28;20455;-96
2021/06/30 06:25:44;;;;;;;23.67;21.30;;;;;;;;;;5048535;22;20810;-96
2021/06/30 06:28:31;;;;;;;22.77;20.37;;;;;;;;;;5017330;28;20458;-96
2021/06/30 06:31:18;;;;;;;22.87;20.43;;;;;;;;;;5565113;22;20498;-94
2021/06/30 06:33:45;;;;;;;22.83;20.57;;;;;;;;;;5000105;28;20429;-96
2021/06/30 06:36:12;;;;;;;23.40;20.80;;;;;;;;;;4995347;28;20496;-96
2021/06/30 06:38:40;;;;;;;24.73;20.30;;;;;;;;;;5000356;28;20445;-96
2021/06/30 06:41:06;;;;;;;23.30;18.63;;;;;;;;;;5019604;28;20421;-94
2021/06/30 06:46:10;;;;;;;21.90;19.70;;;;;;;;;;6045809;23;20733;-96
2021/06/30 06:48:38;;;;;;;21.30;18.27;;;;;;;;;;5373297;22;20489;-96
2021/06/30 06:51:05;;;;;;;25.97;18.60;;;;;;;;;;5045945;28;20483;-96
2021/06/30 06:56:11;;;;;;;19.00;17.03;;;;;;;;;;1454047;23;20477;-96
2021/06/30 07:07:12;;;;;;;18.20;15.97;;;;;;;;;;5454045;23;20475;-95
2021/06/30 07:09:41;;;;;;;18.73;16.83;;;;;;;;;;4997507;28;20437;-96
2021/06/30 07:14:48;;;;;;;17.60;15.83;;;;;;;;;;5312640;22;20467;-96
2021/06/30 07:22:38;;;;;;;18.20;16.40;;;;;;;;;;1222701;26;20475;-96
2021/06/30 07:25:14;;;;;;;18.03;16.17;;;;;;;;;;5181582;22;20483;-96
2021/06/30 07:27:41;;;;;;;16.70;14.97;;;;;;;;;;5018908;28;20468;-96
2021/06/30 07:32:43;;;;;;;16.00;14.70;;;;;;;;;;5343764;22;20501;-96
2021/06/30 07:35:10;;;;;;;15.27;13.63;;;;;;;;;;5107247;23;20475;-96
2021/06/30 07:37:36;;;;;;;17.73;15.07;;;;;;;;;;5043332;22;20471;-96
2021/06/30 07:40:04;;;;;;;16.20;14.60;;;;;;;;;;5037719;28;20872;-96
2021/06/30 07:42:38;;;;;;;16.63;15.03;;;;;;;;;;5052794;23;20464;-96
2021/06/30 07:53:15;;;;;;;16.07;14.50;;;;;;;;;;5044137;28;20458;-96
2021/06/30 07:58:26;;;;;;;17.63;14.40;;;;;;;;;;5379222;22;20490;-96
2021/06/30 08:00:59;;;;;;;16.37;13.87;;;;;;;;;;5051843;28;20458;-96
2021/06/30 08:06:11;;;;;;;14.77;13.27;;;;;;;;;;5074181;22;20511;-96
2021/06/30 08:08:49;;;;;;;16.80;14.50;;;;;;;;;;5104305;23;20468;-96
2021/06/30 08:11:49;;;;;;;17.77;13.70;;;;;;;;;;5022024;23;20445;-96
2021/06/30 08:17:18;;;;;;;15.30;13.73;;;;;;;;;;5257429;22;20511;-96
2021/06/30 08:22:35;;;;;;;14.80;13.30;;;;;;;;;;5087844;23;20470;-96
2021/06/30 08:32:56;;;;;;;13.47;12.30;;;;;;;;;;4430617;22;20523;-96
2021/06/30 08:35:35;;;;;;;16.43;11.90;;;;;;;;;;5096824;22;20494;-96
2021/06/30 08:46:57;;;;;;;14.13;12.70;;;;;;;;;;5130353;23;20509;-96
2021/06/30 09:04:11;;;;;;;15.13;13.03;;;;;;;;;;5037790;28;20458;-96
2021/06/30 09:06:39;;;;;;;12.53;11.20;;;;;;;;;;5022666;28;20471;-96
2021/06/30 09:09:22;;;;;;;12.43;11.33;;;;;;;;;;5042118;28;20447;-96
2021/06/30 09:17:27;;;;;;;13.37;11.90;;;;;;;;;;5596838;22;20472;-96
2021/06/30 09:20:00;;;;;;;13.77;11.30;;;;;;;;;;5024713;28;20525;-96
2021/06/30 09:22:29;;;;;;;13.70;11.70;;;;;;;;;;5019696;28;20564;-96
2021/06/30 09:24:56;;;;;;;11.83;10.70;;;;;;;;;;5030067;28;20444;-96
2021/06/30 09:27:44;;;;;;;12.97;11.77;;;;;;;;;;5077413;23;20511;-96
2021/06/30 09:41:28;;;;;;;13.60;10.57;;;;;;;;;;5016098;28;20419;-95
2021/06/30 09:46:33;;;;;;;11.83;10.70;;;;;;;;;;5059844;23;20494;-96
2021/06/30 09:49:01;;;;;;;11.70;10.70;;;;;;;;;;5202948;23;20480;-96
2021/06/30 09:51:29;;;;;;;12.53;10.60;;;;;;;;;;5045449;23;20543;-96
2021/06/30 09:57:01;;;;;;;17.73;10.97;;;;;;;;;;5099206;22;20560;-96
2021/06/30 10:05:09;;;;;;;11.47;10.27;;;;;;;;;;5049826;28;20449;-95
2021/06/30 10:07:37;;;;;;;11.20;10.20;;;;;;;;;;5085194;22;20462;-95
2021/06/30 10:10:11;;;;;;;11.43;10.33;;;;;;;;;;5024156;28;20514;-96
2021/06/30 10:23:04;;;;;;;13.20;9.97;;;;;;;;;;5141822;22;20494;-96
2021/06/30 10:31:42;;;;;;;10.20;9.23;;;;;;;;;;5169309;22;20537;-95
2021/06/30 10:34:21;;;;;;;10.73;9.57;;;;;;;;;;5038710;28;20427;-95
2021/06/30 10:36:54;;;;;;;11.83;9.50;;;;;;;;;;5120649;22;20515;-96
2021/06/30 10:39:58;;;;;;;15.13;9.60;;;;;;;;;;5055028;28;20469;-96
2021/06/30 10:50:03;;;;;;;12.20;9.70;;;;;;;;;;5047440;28;20466;-96
2021/06/30 10:58:24;;;;;;;10.63;8.63;;;;;;;;;;3900744;23;20471;-96
2021/06/30 11:06:34;;;;;;;8.63;7.43;;;;;;;;;;2379480;22;20500;-96
2021/06/30 11:16:56;;;;;;;10.50;7.63;;;;;;;;;;5021586;28;20499;-96
2021/06/30 11:22:49;;;;;;;8.83;7.53;;;;;;;;;;5040968;28;20443;-93
2021/06/30 11:27:55;;;;;;;11.87;8.33;;;;;;;;;;5357150;22;20486;-94
2021/06/30 11:30:27;;;;;;;13.87;8.50;;;;;;;;;;5041070;28;20463;-96
2021/06/30 11:32:54;;;;;;;14.80;8.40;;;;;;;;;;5039588;28;20440;-96
2021/06/30 11:35:51;;;;;;;13.83;7.97;;;;;;;;;;5047736;28;20439;-96
2021/06/30 11:51:39;;;;;;;16.10;7.50;;;;;;;;;;5050371;28;20862;-95
2021/06/30 11:54:28;;;;;;;10.33;7.87;;;;;;;;;;5033244;28;20466;-96
2021/06/30 11:56:56;;;;;;;9.40;8.07;;;;;;;;;;5039598;28;20487;-96
2021/06/30 11:59:42;;;;;;;9.23;7.47;;;;;;;;;;5047081;28;20446;-96
2021/06/30 12:02:27;;;;;;;11.67;7.67;;;;;;;;;;5051898;22;20484;-96
2021/06/30 12:05:09;;;;;;;9.57;6.90;;;;;;;;;;5128122;23;20487;-94
2021/06/30 12:10:25;;;;;;;9.73;7.13;;;;;;;;;;5053702;28;20533;-95
2021/06/30 12:15:23;;;;;;;9.17;6.90;;;;;;;;;;4997089;28;20461;-96
2021/06/30 12:20:32;;;;;;;12.70;8.00;;;;;;;;;;5165528;23;20486;-95
2021/06/30 12:23:03;;;;;;;9.30;6.93;;;;;;;;;;5012447;22;20500;-95
2021/06/30 12:28:18;;;;;;;8.97;7.77;;;;;;;;;;5033743;23;20518;-96
2021/06/30 12:30:47;;;;;;;8.00;7.20;;;;;;;;;;5018577;28;20444;-96
2021/06/30 12:33:16;;;;;;;10.33;7.43;;;;;;;;;;5037126;22;20547;-96
2021/06/30 12:35:50;;;;;;;13.37;7.43;;;;;;;;;;5027754;28;20467;-96
2021/06/30 12:38:50;;;;;;;10.73;7.83;;;;;;;;;;5019145;28;20433;-96
2021/06/30 12:41:16;;;;;;;8.53;7.80;;;;;;;;;;5006511;28;20433;-93
2021/06/30 12:43:45;;;;;;;12.90;7.90;;;;;;;;;;5027675;28;20446;-95
2021/06/30 12:46:21;;;;;;;8.33;7.30;;;;;;;;;;5015452;28;20483;-96
2021/06/30 12:51:22;;;;;;;11.40;7.80;;;;;;;;;;5064035;22;20487;-95
2021/06/30 12:53:49;;;;;;;10.97;7.70;;;;;;;;;;5023737;28;20467;-96
2021/06/30 12:56:24;;;;;;;10.77;7.90;;;;;;;;;;5032493;28;20483;-94
2021/06/30 12:58:53;;;;;;;11.33;8.10;;;;;;;;;;5026967;28;20452;-96
2021/06/30 13:01:34;;;;;;;14.10;7.53;;;;;;;;;;5025324;23;20472;-95
2021/06/30 13:04:02;;;;;;;7.73;6.93;;;;;;;;;;5061802;23;20487;-96
2021/06/30 13:41:26;;;;;;;9.27;7.73;;;;;;;;;;5240376;23;20530;-96
2021/06/30 13:46:44;;;;;;;10.10;6.97;;;;;;;;;;5352752;22;20496;-95
2021/06/30 13:49:12;;;;;;;12.17;7.43;;;;;;;;;;5015634;28;20444;-95
2021/06/30 13:51:40;;;;;;;10.50;7.37;;;;;;;;;;5120683;23;20887;-96
2021/06/30 13:54:33;;;;;;;8.97;6.80;;;;;;;;;;5037975;28;20431;-95
2021/06/30 14:00:26;;;;;;;11.33;6.93;;;;;;;;;;5046228;23;20490;-96
2021/06/30 14:06:12;;;;;;;17.57;7.67;;;;;;;;;;5335034;22;20490;-96
2021/06/30 14:25:08;;;;;;;10.00;6.80;;;;;;;;;;5784856;23;20540;-96
2021/06/30 14:30:35;;;;;;;9.97;6.90;;;;;;;;;;5119983;22;20471;-96
2021/06/30 14:36:27;;;;;;;9.10;6.70;;;;;;;;;;5029465;22;20479;-96
2021/06/30 14:47:46;;;;;;;11.10;7.10;;;;;;;;;;5379155;23;20508;-96
2021/06/30 14:58:10;;;;;;;12.87;6.40;;;;;;;;;;5060616;22;20510;-96
2021/06/30 15:03:36;;;;;;;10.90;5.97;;;;;;;;;;5049575;28;20471;-96
2021/06/30 15:06:03;;;;;;;8.20;6.07;;;;;;;;;;5056873;28;20442;-96
2021/06/30 15:08:56;;;;;;;9.00;5.87;;;;;;;;;;5266127;22;21420;-96
2021/06/30 15:11:26;;;;;;;9.90;6.30;;;;;;;;;;5030705;28;20444;-95
2021/06/30 15:14:05;;;;;;;11.47;5.80;;;;;;;;;;5022111;28;20486;-96
2021/06/30 15:41:06;;;;;;;10.53;6.07;;;;;;;;;;5113896;22;20467;-96
2021/06/30 15:48:43;;;;;;;9.77;6.20;;;;;;;;;;5180754;22;20482;-94
2021/06/30 16:35:31;;;;;;;10.00;6.33;;;;;;;;;;5161871;22;20475;-96
2021/06/30 16:37:58;;;;;;;8.87;7.00;;;;;;;;;;5021750;28;20490;-95
2021/06/30 16:51:25;;;;;;;8.20;7.33;;;;;;;;;;5037057;22;20479;-95
2021/06/30 16:53:58;;;;;;;10.23;7.27;;;;;;;;;;5177864;22;20512;-96
2021/06/30 17:04:37;;;;;;;10.33;7.23;;;;;;;;;;5162615;22;20463;-96
2021/06/30 17:07:44;;;;;;;9.40;7.87;;;;;;;;;;5058985;28;20443;-96
2021/06/30 17:15:22;;;;;;;8.33;7.47;;;;;;;;;;5022949;28;20464;-96
2021/06/30 17:20:33;;;;;;;11.60;8.03;;;;;;;;;;5026964;28;20459;-96
2021/06/30 17:23:00;;;;;;;29.10;8.40;;;;;;;;;;5034373;28;20447;-96
2021/06/30 17:28:03;;;;;;;14.83;8.50;;;;;;;;;;5065606;22;20501;-95
2021/06/30 17:30:53;;;;;;;17.17;8.30;;;;;;;;;;5033130;28;20447;-95
2021/06/30 17:35:58;;;;;;;18.27;8.80;;;;;;;;;;5026455;28;20475;-95
2021/06/30 17:38:25;;;;;;;11.63;9.37;;;;;;;;;;5041509;28;20518;-96
2021/06/30 17:40:57;;;;;;;16.70;9.53;;;;;;;;;;5027912;28;20570;-96
2021/06/30 17:43:37;;;;;;;10.67;9.53;;;;;;;;;;5033741;28;20467;-96
2021/06/30 17:46:05;;;;;;;17.27;10.83;;;;;;;;;;5038628;28;20454;-96
2021/06/30 17:48:42;;;;;;;10.87;9.20;;;;;;;;;;5035463;28;20444;-95
2021/06/30 17:51:11;;;;;;;9.93;8.97;;;;;;;;;;5024547;28;20451;-96
2021/06/30 17:53:37;;;;;;;11.13;10.00;;;;;;;;;;5037061;28;20470;-96
2021/06/30 17:56:04;;;;;;;11.70;9.97;;;;;;;;;;5050016;28;20447;-96
2021/06/30 17:58:31;;;;;;;23.53;10.87;;;;;;;;;;5036982;28;20490;-95
2021/06/30 18:03:32;;;;;;;18.83;10.97;;;;;;;;;;5068236;22;20502;-96
2021/06/30 18:05:59;;;;;;;12.10;10.50;;;;;;;;;;5053721;28;20431;-96
2021/06/30 18:08:27;;;;;;;18.23;10.97;;;;;;;;;;5035089;28;20451;-96
2021/06/30 18:13:44;;;;;;;19.90;10.77;;;;;;;;;;5086664;23;20498;-96
2021/06/30 18:16:11;;;;;;;14.20;11.73;;;;;;;;;;5041614;28;20455;-96
2021/06/30 18:21:13;;;;;;;13.67;11.30;;;;;;;;;;5089483;23;20545;-96
2021/06/30 18:23:43;;;;;;;15.47;12.10;;;;;;;;;;5020249;28;20448;-96
2021/06/30 18:26:09;;;;;;;16.07;12.03;;;;;;;;;;5038883;23;20594;-94
2021/06/30 18:28:45;;;;;;;15.80;11.93;;;;;;;;;;5041173;28;20455;-96
2021/06/30 18:31:11;;;;;;;14.07;12.20;;;;;;;;;;5047397;28;20447;-94
2021/06/30 18:33:38;;;;;;;15.37;11.53;;;;;;;;;;5039817;28;20459;-94
2021/06/30 18:36:04;;;;;;;15.87;11.43;;;;;;;;;;5046770;28;20450;-96
2021/06/30 18:38:32;;;;;;;17.00;11.90;;;;;;;;;;5038681;28;20505;-96
2021/06/30 18:41:07;;;;;;;17.30;12.20;;;;;;;;;;5054163;28;20861;-96
2021/06/30 18:43:34;;;;;;;15.03;12.40;;;;;;;;;;5043856;28;20450;-94
2021/06/30 18:48:56;;;;;;;14.97;12.27;;;;;;;;;;5039182;23;20516;-95
2021/06/30 18:51:22;;;;;;;13.93;12.30;;;;;;;;;;5100185;23;20491;-96
2021/06/30 18:53:49;;;;;;;16.23;12.60;;;;;;;;;;5037631;28;20455;-96
2021/06/30 18:56:19;;;;;;;15.03;13.57;;;;;;;;;;5026076;28;20444;-96
2021/06/30 18:58:46;;;;;;;13.47;12.17;;;;;;;;;;5038503;28;20490;-96
2021/06/30 19:01:12;;;;;;;14.17;12.87;;;;;;;;;;5039900;28;20463;-96
2021/06/30 19:03:49;;;;;;;14.13;12.77;;;;;;;;;;5028582;28;20456;-96
2021/06/30 19:06:44;;;;;;;13.53;12.30;;;;;;;;;;5031099;28;20467;-96
2021/06/30 19:09:13;;;;;;;14.93;12.93;;;;;;;;;;5034329;28;20463;-96
2021/06/30 19:11:40;;;;;;;14.73;13.23;;;;;;;;;;5078564;22;20467;-96
2021/06/30 19:14:08;;;;;;;16.70;13.30;;;;;;;;;;5058142;23;20467;-96
2021/06/30 19:19:36;;;;;;;14.77;13.33;;;;;;;;;;5101015;23;21065;-96
2021/06/30 19:22:04;;;;;;;15.40;14.00;;;;;;;;;;5039664;28;21060;-95
2021/06/30 19:24:52;;;;;;;16.13;14.63;;;;;;;;;;5037246;28;20463;-96
2021/06/30 19:27:21;;;;;;;18.43;14.30;;;;;;;;;;5048322;28;20459;-96
2021/06/30 19:29:47;;;;;;;18.27;13.73;;;;;;;;;;5051314;28;20439;-96
2021/06/30 19:35:02;;;;;;;20.63;13.20;;;;;;;;;;5042724;28;20475;-96
2021/06/30 19:37:47;;;;;;;16.63;14.80;;;;;;;;;;5096452;22;20534;-95
2021/06/30 19:43:18;;;;;;;21.33;13.77;;;;;;;;;;5057683;23;20466;-96
2021/06/30 19:48:28;;;;;;;15.67;14.27;;;;;;;;;;5522444;22;20495;-96
2021/06/30 19:56:31;;;;;;;15.67;14.00;;;;;;;;;;5142082;22;20500;-96
2021/06/30 20:01:33;;;;;;;16.60;15.00;;;;;;;;;;5297541;23;20494;-96
2021/06/30 20:06:42;;;;;;;17.60;14.83;;;;;;;;;;5033732;28;20448;-95
2021/06/30 20:14:19;;;;;;;20.10;13.60;;;;;;;;;;5142859;22;20504;-96
2021/06/30 20:16:54;;;;;;;23.47;15.20;;;;;;;;;;5027508;28;20432;-96
2021/06/30 20:21:57;;;;;;;16.63;14.30;;;;;;;;;;5026962;28;20479;-95
2021/06/30 20:27:43;;;;;;;17.23;14.77;;;;;;;;;;5038976;23;21082;-96
2021/06/30 20:30:10;;;;;;;16.40;14.50;;;;;;;;;;5026198;28;20494;-96
2021/06/30 20:32:37;;;;;;;15.33;13.83;;;;;;;;;;5008595;28;20879;-96
2021/06/30 20:35:07;;;;;;;17.10;13.50;;;;;;;;;;5026909;28;20448;-96
2021/06/30 20:37:37;;;;;;;15.57;14.07;;;;;;;;;;5020677;28;20491;-96
2021/06/30 20:40:04;;;;;;;16.90;14.30;;;;;;;;;;5521034;22;20466;-95
2021/06/30 20:42:31;;;;;;;15.87;14.27;;;;;;;;;;5023789;28;20483;-96
2021/06/30 20:44:58;;;;;;;16.50;13.17;;;;;;;;;;5029739;28;20482;-95
2021/06/30 20:47:24;;;;;;;19.40;14.93;;;;;;;;;;5026125;28;20471;-96
2021/06/30 20:49:51;;;;;;;18.63;15.37;;;;;;;;;;5027913;28;20456;-96
2021/06/30 20:52:17;;;;;;;18.50;14.70;;;;;;;;;;5027576;28;20475;-95
2021/06/30 20:55:05;;;;;;;18.93;14.00;;;;;;;;;;5033737;28;20498;-96
2021/06/30 20:57:32;;;;;;;16.40;14.60;;;;;;;;;;5030091;28;20470;-96
2021/06/30 20:59:58;;;;;;;16.73;15.17;;;;;;;;;;5030747;28;20462;-96
2021/06/30 21:02:25;;;;;;;17.03;15.27;;;;;;;;;;5023366;28;20458;-96
2021/06/30 21:09:54;;;;;;;16.63;14.90;;;;;;;;;;5034649;28;20487;-96
2021/06/30 21:12:21;;;;;;;16.60;14.30;;;;;;;;;;5032461;28;20448;-96
2021/06/30 21:14:55;;;;;;;16.60;14.87;;;;;;;;;;5037713;28;20465;-96
2021/06/30 21:20:15;;;;;;;15.13;13.60;;;;;;;;;;5022555;28;20499;-95
2021/06/30 21:22:43;;;;;;;16.03;14.40;;;;;;;;;;5031689;28;20486;-96
2021/06/30 21:25:19;;;;;;;14.93;13.33;;;;;;;;;;5034130;28;20464;-96
2021/06/30 21:30:33;;;;;;;15.93;14.23;;;;;;;;;;5044147;28;20469;-96
2021/06/30 21:41:25;;;;;;;16.00;13.40;;;;;;;;;;5051436;28;20506;-96
2021/06/30 21:43:51;;;;;;;15.93;14.43;;;;;;;;;;5036650;28;20456;-96
2021/06/30 21:46:18;;;;;;;16.07;14.37;;;;;;;;;;5020304;28;20463;-95
2021/06/30 21:48:44;;;;;;;18.13;14.83;;;;;;;;;;5034110;28;20471;-94
2021/06/30 21:51:11;;;;;;;20.73;13.60;;;;;;;;;;5021899;28;20975;-96
2021/06/30 21:53:38;;;;;;;17.27;14.10;;;;;;;;;;4996371;28;20458;-94
2021/06/30 21:56:05;;;;;;;15.90;13.77;;;;;;;;;;5029088;28;20518;-94
2021/06/30 21:58:32;;;;;;;19.67;15.00;;;;;;;;;;5025558;28;20483;-96
2021/06/30 22:00:59;;;;;;;15.60;13.50;;;;;;;;;;5031707;28;21149;-95
2021/06/30 22:03:26;;;;;;;18.30;13.50;;;;;;;;;;5006642;28;20452;-96
2021/06/30 22:05:52;;;;;;;15.60;14.00;;;;;;;;;;5027672;28;20464;-96
2021/06/30 22:08:19;;;;;;;15.87;14.37;;;;;;;;;;5029810;28;20451;-96
2021/06/30 22:10:46;;;;;;;22.30;14.87;;;;;;;;;;5033028;28;20458;-96
2021/06/30 22:13:12;;;;;;;17.13;13.80;;;;;;;;;;5027526;28;20548;-96
2021/06/30 22:15:40;;;;;;;20.30;14.17;;;;;;;;;;5030934;28;20473;-95
2021/06/30 22:18:07;;;;;;;15.10;13.50;;;;;;;;;;5026340;28;20490;-96
2021/06/30 22:20:38;;;;;;;16.17;14.67;;;;;;;;;;5030040;28;20448;-96
2021/06/30 22:23:10;;;;;;;17.50;15.50;;;;;;;;;;5025784;28;20466;-96
2021/06/30 22:25:37;;;;;;;14.80;13.30;;;;;;;;;;5036921;28;20465;-95
2021/06/30 22:28:03;;;;;;;16.17;13.77;;;;;;;;;;5047110;28;20439;-96
2021/06/30 22:33:08;;;;;;;15.03;13.43;;;;;;;;;;5111536;22;20502;-96
2021/06/30 22:35:35;;;;;;;16.37;14.03;;;;;;;;;;5031668;28;20510;-96
2021/06/30 22:38:01;;;;;;;16.63;14.93;;;;;;;;;;5006968;28;20527;-96
2021/06/30 22:40:28;;;;;;;14.40;13.00;;;;;;;;;;5013913;28;20529;-96
2021/06/30 22:42:54;;;;;;;14.40;13.10;;;;;;;;;;5007100;28;20452;-96
2021/06/30 22:45:24;;;;;;;14.83;13.30;;;;;;;;;;5012624;28;20521;-96
2021/06/30 22:47:51;;;;;;;14.77;13.40;;;;;;;;;;5002630;28;20504;-96
2021/06/30 22:50:19;;;;;;;17.13;14.40;;;;;;;;;;5054039;22;20492;-95
2021/06/30 22:52:45;;;;;;;18.13;14.23;;;;;;;;;;5011030;28;20463;-96
2021/06/30 22:55:12;;;;;;;16.17;14.60;;;;;;;;;;5042542;28;20903;-96
2021/06/30 22:57:40;;;;;;;16.50;14.33;;;;;;;;;;5045360;28;20430;-96
2021/06/30 23:00:08;;;;;;;17.53;13.83;;;;;;;;;;5033743;28;20560;-96
2021/06/30 23:02:34;;;;;;;15.97;14.37;;;;;;;;;;5049135;28;20455;-96
2021/06/30 23:05:02;;;;;;;18.63;14.43;;;;;;;;;;5128867;23;20530;-96
2021/06/30 23:07:40;;;;;;;19.30;13.87;;;;;;;;;;5031869;28;20446;-96
2021/06/30 23:10:34;;;;;;;16.30;14.70;;;;;;;;;;5033628;28;20462;-96
2021/06/30 23:13:10;;;;;;;14.00;12.70;;;;;;;;;;5046149;28;20458;-96
2021/06/30 23:15:36;;;;;;;14.87;13.43;;;;;;;;;;5024996;28;20526;-96
2021/06/30 23:18:03;;;;;;;16.03;13.87;;;;;;;;;;5042998;28;20462;-94
2021/06/30 23:20:30;;;;;;;17.97;14.50;;;;;;;;;;5033953;28;20451;-96
2021/06/30 23:22:58;;;;;;;17.20;14.07;;;;;;;;;;5032464;28;20489;-94
2021/06/30 23:25:24;;;;;;;15.60;14.00;;;;;;;;;;5026376;28;21230;-96
2021/06/30 23:27:51;;;;;;;16.10;14.37;;;;;;;;;;5037004;28;20513;-94
2021/06/30 23:30:18;;;;;;;16.97;15.10;;;;;;;;;;5029199;28;20466;-96
2021/06/30 23:32:44;;;;;;;17.20;15.00;;;;;;;;;;5026355;28;20478;-96
2021/06/30 23:35:11;;;;;;;20.40;14.17;;;;;;;;;;5037364;28;20478;-95
2021/06/30 23:37:38;;;;;;;20.23;15.23;;;;;;;;;;5041514;28;20451;-94
2021/06/30 23:40:06;;;;;;;16.30;14.67;;;;;;;;;;5035274;28;20513;-95
2021/06/30 23:42:33;;;;;;;16.80;15.20;;;;;;;;;;5027738;28;20503;-95
2021/06/30 23:45:00;;;;;;;16.43;14.83;;;;;;;;;;5029212;28;20459;-95
2021/06/30 23:47:29;;;;;;;18.23;14.23;;;;;;;;;;5043277;28;20527;-95
2021/06/30 23:49:55;;;;;;;15.57;13.90;;;;;;;;;;5038162;28;20488;-95
2021/06/30 23:52:22;;;;;;;17.23;14.63;;;;;;;;;;5040220;28;20451;-96
2021/06/30 23:54:48;;;;;;;16.80;15.03;;;;;;;;;;5039753;28;20481;-94
2021/06/30 23:57:16;;;;;;;16.90;15.40;;;;;;;;;;5021061;28;20463;-95
2021/06/30 23:59:43;;;;;;;16.00;14.43;;;;;;;;;;5032022;28;21069;-95
